createdAt,value
2023-03-11T00:01:05.790Z,2
2023-03-11T00:03:07.614Z,1.9
2023-03-11T00:05:09.499Z,1.5
2023-03-11T00:07:11.272Z,2
2023-03-11T00:09:13.082Z,1.3
2023-03-11T00:11:14.962Z,1.8
2023-03-11T00:13:19.958Z,2.5
2023-03-11T00:15:21.797Z,1.5
2023-03-11T00:17:23.667Z,1.8
2023-03-11T00:19:25.490Z,1.6
2023-03-11T00:21:27.345Z,2.1
2023-03-11T00:23:29.172Z,1.2
2023-03-11T00:25:31.000Z,2.4
2023-03-11T00:27:36.036Z,2.2
2023-03-11T00:29:37.866Z,2
2023-03-11T00:31:39.706Z,2.2
2023-03-11T00:33:41.511Z,2
2023-03-11T00:35:43.416Z,1.2
2023-03-11T00:37:45.131Z,1.9
2023-03-11T00:39:46.968Z,1.7
2023-03-11T00:41:52.020Z,1.5
2023-03-11T00:43:53.872Z,2.7
2023-03-11T00:48:24.538Z,2.3
2023-03-11T00:50:26.338Z,2.2
2023-03-11T00:56:35.019Z,3.3
2023-03-11T00:58:36.857Z,2.2
2023-03-11T01:02:40.523Z,1.3
2023-03-11T01:04:42.430Z,1.5
2023-03-11T01:06:45.505Z,1.6
2023-03-11T01:10:51.030Z,1.3
2023-03-11T01:12:52.866Z,1.7
2023-03-11T01:14:54.682Z,1
2023-03-11T01:16:56.534Z,1.7
2023-03-11T01:18:58.397Z,1.6
2023-03-11T01:21:00.198Z,2.5
2023-03-11T01:23:05.235Z,1.5
2023-03-11T01:25:07.088Z,1.6
2023-03-11T01:27:08.901Z,2.8
2023-03-11T01:29:10.708Z,2.4
2023-03-11T01:31:12.680Z,2.3
2023-03-11T01:33:14.393Z,2.6
2023-03-11T01:35:16.196Z,1.7
2023-03-11T01:37:21.260Z,1.6
2023-03-11T01:42:27.400Z,3.1
2023-03-11T01:44:29.210Z,2.2
2023-03-11T01:46:31.130Z,2.4
2023-03-11T01:48:32.863Z,2.2
2023-03-11T01:50:37.920Z,2.8
2023-03-11T01:52:39.735Z,3.3
2023-03-11T01:54:41.553Z,3
2023-03-11T01:56:43.390Z,1.9
2023-03-11T01:58:45.204Z,2.1
2023-03-11T02:00:47.100Z,1.1
2023-03-11T02:02:48.887Z,1
2023-03-11T02:04:53.880Z,1
2023-03-11T02:06:55.703Z,1.2
2023-03-11T02:15:02.948Z,1.3
2023-03-11T02:17:04.777Z,1.8
2023-03-11T02:21:11.598Z,1.2
2023-03-11T02:23:13.426Z,1.3
2023-03-11T02:31:20.663Z,1.5
2023-03-11T02:38:31.829Z,1.6
2023-03-11T02:40:33.672Z,1.7
2023-03-11T02:42:35.489Z,2
2023-03-11T02:44:37.330Z,1.3
2023-03-11T02:46:42.411Z,1.6
2023-03-11T02:48:44.167Z,2.7
2023-03-11T02:50:45.995Z,1.7
2023-03-11T02:52:47.799Z,1.7
2023-03-11T02:56:51.400Z,1.7
2023-03-11T03:00:58.259Z,1.8
2023-03-11T03:03:00.118Z,1.5
2023-03-11T03:05:01.878Z,0.8
2023-03-11T03:07:03.724Z,1.1
2023-03-11T03:15:14.137Z,1.4
2023-03-11T03:17:16.025Z,1.7
2023-03-11T03:19:17.837Z,1.4
2023-03-11T03:23:21.428Z,1.7
2023-03-11T03:25:23.201Z,2
2023-03-11T03:29:30.070Z,1.9
2023-03-11T03:31:31.915Z,1.8
2023-03-11T03:40:41.631Z,1.7
2023-03-11T03:44:49.994Z,1.3
2023-03-11T03:46:51.793Z,1.9
2023-03-11T03:48:53.607Z,2
2023-03-11T03:50:55.412Z,1.1
2023-03-11T03:52:57.210Z,1.2
2023-03-11T03:54:59.021Z,1.2
2023-03-11T03:57:04.058Z,1.5
2023-03-11T03:59:05.861Z,1.1
2023-03-11T04:01:07.674Z,2.1
2023-03-11T04:03:09.495Z,0.9
2023-03-11T04:05:11.251Z,1.3
2023-03-11T04:07:13.043Z,1.8
2023-03-11T04:09:14.830Z,1
2023-03-11T04:11:19.860Z,1.5
2023-03-11T04:13:21.643Z,1.1
2023-03-11T04:15:23.472Z,1.9
2023-03-11T04:17:25.282Z,1.7
2023-03-11T04:19:27.066Z,1.6
2023-03-11T04:21:28.847Z,2
2023-03-11T04:23:30.648Z,1.5
2023-03-11T04:25:35.699Z,1.2
2023-03-11T04:27:37.463Z,1.6
2023-03-11T04:29:39.248Z,1.4
2023-03-11T04:32:08.157Z,1.8
2023-03-11T04:34:09.960Z,1.7
2023-03-11T04:36:11.738Z,1.3
2023-03-11T04:38:16.778Z,3.2
2023-03-11T04:40:18.581Z,1.8
2023-03-11T04:42:20.375Z,1.3
2023-03-11T04:44:22.198Z,1.3
2023-03-11T04:46:24.008Z,1.5
2023-03-11T04:48:25.744Z,1
2023-03-11T04:50:27.533Z,1.5
2023-03-11T04:52:32.556Z,1.5
2023-03-11T04:54:34.329Z,0.9
2023-03-11T04:56:36.136Z,2
2023-03-11T04:58:37.912Z,1.5
2023-03-11T05:00:39.712Z,1.4
2023-03-11T05:02:41.511Z,2.3
2023-03-11T05:04:43.365Z,1
2023-03-11T05:06:48.336Z,2.1
2023-03-11T05:08:50.107Z,1.4
2023-03-11T05:10:51.870Z,1.2
2023-03-11T05:12:53.698Z,1.6
2023-03-11T05:14:55.434Z,1.4
2023-03-11T05:16:57.256Z,1
2023-03-11T05:21:04.038Z,1.7
2023-03-11T05:25:07.624Z,0.8
2023-03-11T05:26:10.155Z,1.5
2023-03-11T05:28:11.892Z,1.1
2023-03-11T05:30:13.660Z,1.4
2023-03-11T05:34:20.487Z,1.3
2023-03-11T05:36:22.218Z,1.4
2023-03-11T05:42:27.574Z,1.1
2023-03-11T05:44:29.364Z,2.4
2023-03-11T05:46:31.184Z,1.4
2023-03-11T05:48:36.133Z,1.5
2023-03-11T05:50:37.916Z,1.4
2023-03-11T05:52:39.701Z,1.4
2023-03-11T05:54:41.453Z,1.5
2023-03-11T05:56:43.197Z,1.1
2023-03-11T05:58:44.970Z,1.7
2023-03-11T06:00:46.753Z,0.9
2023-03-11T06:02:51.749Z,2
2023-03-11T06:04:53.706Z,2.7
2023-03-11T06:06:55.282Z,1
2023-03-11T06:08:57.049Z,1.6
2023-03-11T06:10:58.804Z,2.1
2023-03-11T06:13:00.583Z,1.7
2023-03-11T06:15:02.391Z,1.8
2023-03-11T06:17:07.394Z,1.4
2023-03-11T06:19:09.137Z,1.1
2023-03-11T06:21:10.901Z,1.2
2023-03-11T06:38:30.831Z,1.1
2023-03-11T06:40:32.617Z,1.9
2023-03-11T06:46:41.132Z,1.5
2023-03-11T06:48:42.896Z,1.2
2023-03-11T06:52:46.471Z,1.6
2023-03-11T06:56:50.061Z,2
2023-03-11T06:58:55.117Z,2.2
2023-03-11T07:00:56.936Z,2.4
2023-03-11T07:02:58.785Z,2.6
2023-03-11T07:05:00.616Z,2.7
2023-03-11T07:07:02.470Z,2.4
2023-03-11T07:09:04.348Z,2.8
2023-03-11T07:11:06.204Z,2.8
2023-03-11T07:13:11.291Z,2.2
2023-03-11T07:15:13.187Z,2.1
2023-03-11T07:17:15.527Z,1.8
2023-03-11T07:24:23.404Z,1.9
2023-03-11T07:28:30.428Z,2.1
2023-03-11T07:30:32.307Z,1.5
2023-03-11T07:32:34.238Z,2.8
2023-03-11T07:34:36.137Z,1.9
2023-03-11T07:36:38.062Z,3.1
2023-03-11T07:38:41.753Z,2.3
2023-03-11T07:40:45.119Z,2.4
2023-03-11T07:42:47.037Z,1.6
2023-03-11T07:46:50.866Z,1
2023-03-11T07:48:52.766Z,1.5
2023-03-11T07:50:54.684Z,1.4
2023-03-11T07:52:56.552Z,1.7
2023-03-11T07:57:03.604Z,1.3
2023-03-11T07:59:05.510Z,1.1
2023-03-11T08:07:13.098Z,1.3
2023-03-11T08:11:20.074Z,1.9
2023-03-11T08:13:21.956Z,1.9
2023-03-11T08:15:50.854Z,2.1
2023-03-11T08:17:52.758Z,1.5
2023-03-11T08:19:54.640Z,1.5
2023-03-11T08:21:59.793Z,1.2
2023-03-11T08:24:01.656Z,1.5
2023-03-11T08:28:05.471Z,1.2
2023-03-11T08:34:11.176Z,1.8
2023-03-11T08:38:18.159Z,3.1
2023-03-11T08:40:20.126Z,3.6
2023-03-11T08:42:21.979Z,3.1
2023-03-11T08:48:27.800Z,2.3
2023-03-11T08:50:41.244Z,1.2
2023-03-11T08:52:34.891Z,1.6
2023-03-11T08:54:36.839Z,1.2
2023-03-11T08:58:40.772Z,1.2
2023-03-11T09:00:42.736Z,1.4
2023-03-11T09:02:44.709Z,2
2023-03-11T09:04:49.846Z,1.8
2023-03-11T09:06:51.888Z,1.3
2023-03-11T09:09:56.413Z,1.4
2023-03-11T09:11:58.364Z,0.7
2023-03-11T09:14:00.358Z,0.7
2023-03-11T09:16:02.379Z,0.6
2023-03-11T09:18:07.518Z,0.8
2023-03-11T09:20:09.482Z,0.7
2023-03-11T09:22:11.478Z,0.8
2023-03-11T09:24:13.464Z,1
2023-03-11T09:26:15.451Z,0.6
2023-03-11T09:28:17.431Z,0.5
2023-03-11T09:30:19.437Z,0.7
2023-03-11T09:32:26.243Z,0.9
2023-03-11T09:34:28.118Z,0.6
2023-03-11T09:36:30.172Z,1
2023-03-11T09:38:32.087Z,1.1
2023-03-11T09:40:34.089Z,1.2
2023-03-11T09:42:36.076Z,0.8
2023-03-11T09:46:43.349Z,0.8
2023-03-11T09:48:45.269Z,0.8
2023-03-11T09:50:47.263Z,0.6
2023-03-11T09:52:49.246Z,0.7
2023-03-11T09:54:51.137Z,0.7
2023-03-11T09:56:53.029Z,1.8
2023-03-11T10:00:59.934Z,1
2023-03-11T10:03:01.871Z,0.5
2023-03-11T10:05:03.654Z,0.9
2023-03-11T10:06:06.180Z,1.3
2023-03-11T10:08:08.047Z,0.9
2023-03-11T10:10:09.943Z,0.9
2023-03-11T10:12:11.800Z,1.2
2023-03-11T10:14:16.827Z,1.3
2023-03-11T10:16:18.698Z,0.5
2023-03-11T10:18:20.567Z,0.9
2023-03-11T10:20:22.524Z,0.8
2023-03-11T10:22:24.311Z,0.7
2023-03-11T10:24:26.160Z,0.8
2023-03-11T10:28:33.624Z,0.3
2023-03-11T10:30:35.464Z,0.8
2023-03-11T10:32:37.427Z,0.5
2023-03-11T10:34:39.217Z,0.9
2023-03-11T10:36:41.094Z,1.2
2023-03-11T10:38:42.992Z,0.9
2023-03-11T10:40:44.875Z,1.1
2023-03-11T10:42:50.097Z,0.8
2023-03-11T10:44:52.672Z,1
2023-03-11T10:46:53.930Z,1.1
2023-03-11T10:48:55.971Z,1.9
2023-03-11T10:52:59.876Z,1.6
2023-03-11T10:55:01.874Z,1.5
2023-03-11T10:57:07.048Z,1.3
2023-03-11T10:59:09.010Z,1.4
2023-03-11T11:01:11.043Z,1.2
2023-03-11T11:02:13.607Z,1.5
2023-03-11T11:04:15.566Z,1.4
2023-03-11T11:10:24.670Z,1
2023-03-11T11:16:30.655Z,0.8
2023-03-11T11:24:41.677Z,1.4
2023-03-11T11:28:45.576Z,1.6
2023-03-11T11:30:47.576Z,1
2023-03-11T11:32:49.528Z,1.5
2023-03-11T11:34:51.434Z,1.3
2023-03-11T11:36:53.418Z,1.5
2023-03-11T11:41:00.569Z,1.6
2023-03-11T11:43:02.520Z,0.9
2023-03-11T11:47:06.530Z,1.7
2023-03-11T11:51:10.335Z,1
2023-03-11T11:59:48.177Z,1
2023-03-11T12:01:50.160Z,1.6
2023-03-11T12:03:52.256Z,1.6
2023-03-11T12:05:58.212Z,1.1
2023-03-11T12:07:59.236Z,1.9
2023-03-11T12:10:12.894Z,0.8
2023-03-11T12:12:03.915Z,1
2023-03-11T12:14:05.799Z,1.3
2023-03-11T12:16:07.710Z,1.1
2023-03-11T12:18:09.670Z,1.5
2023-03-11T12:20:14.809Z,1
2023-03-11T12:22:16.771Z,1.3
2023-03-11T12:24:18.652Z,1
2023-03-11T12:26:20.536Z,1.5
2023-03-11T12:28:22.395Z,1.3
2023-03-11T12:34:31.139Z,2
2023-03-11T12:36:33.024Z,1.4
2023-03-11T12:38:34.895Z,0.9
2023-03-11T12:40:36.768Z,1.1
2023-03-11T12:44:40.535Z,1.2
2023-03-11T12:46:42.452Z,0.8
2023-03-11T12:50:49.321Z,1
2023-03-11T12:52:51.214Z,1.5
2023-03-11T12:53:53.723Z,1.5
2023-03-11T12:59:59.348Z,0.7
2023-03-11T13:02:04.394Z,1.3
2023-03-11T13:04:06.245Z,0.9
2023-03-11T13:06:08.101Z,0.8
2023-03-11T13:08:09.974Z,0.5
2023-03-11T13:10:11.949Z,2
2023-03-11T13:12:13.746Z,0.6
2023-03-11T13:14:15.607Z,1.2
2023-03-11T13:16:20.717Z,1.9
2023-03-11T13:18:22.502Z,1.1
2023-03-11T13:22:26.229Z,0.8
2023-03-11T13:26:29.999Z,0.9
2023-03-11T13:28:31.901Z,0.9
2023-03-11T13:30:36.900Z,1
2023-03-11T13:32:38.890Z,1
2023-03-11T13:34:40.658Z,0.8
2023-03-11T13:36:42.516Z,0.9
2023-03-11T13:38:44.381Z,1.3
2023-03-11T13:40:46.288Z,1.1
2023-03-11T13:42:48.131Z,1.4
2023-03-11T13:44:53.137Z,0.5
2023-03-11T13:46:55.031Z,0.9
2023-03-11T13:48:56.926Z,0.6
2023-03-11T13:52:01.311Z,1.1
2023-03-11T13:54:03.159Z,0.8
2023-03-11T13:56:05.037Z,0.7
2023-03-11T13:58:10.069Z,1.3
2023-03-11T14:02:13.824Z,1.1
2023-03-11T14:08:19.404Z,0.6
2023-03-11T14:10:21.309Z,1.1
2023-03-11T14:12:26.339Z,1
2023-03-11T14:14:28.196Z,0.9
2023-03-11T14:16:30.112Z,3.6
2023-03-11T14:18:31.926Z,1.3
2023-03-11T14:20:33.855Z,0.9
2023-03-11T14:22:35.649Z,0.8
2023-03-11T14:24:37.547Z,0.8
2023-03-11T14:28:45.206Z,0.9
2023-03-11T14:30:46.353Z,1
2023-03-11T14:34:50.136Z,1.1
2023-03-11T14:40:58.910Z,0.6
2023-03-11T14:43:00.793Z,0.5
2023-03-11T14:45:02.816Z,1.2
2023-03-11T14:46:05.384Z,1.1
2023-03-11T14:48:07.288Z,0.8
2023-03-11T14:50:09.201Z,0.6
2023-03-11T14:52:11.055Z,1
2023-03-11T14:58:20.198Z,0.8
2023-03-11T15:02:24.196Z,1.5
2023-03-11T15:04:26.150Z,0.8
2023-03-11T15:06:28.147Z,0.7
2023-03-11T15:08:33.382Z,1
2023-03-11T15:10:35.371Z,0.7
2023-03-11T15:12:37.347Z,1.1
2023-03-11T15:16:41.365Z,0.7
2023-03-11T15:18:43.290Z,0.9
2023-03-11T15:20:45.301Z,1.1
2023-03-11T15:22:50.480Z,0.7
2023-03-11T15:24:54.057Z,0.9
2023-03-11T15:26:55.993Z,1.5
2023-03-11T15:30:59.959Z,0.7
2023-03-11T15:33:01.904Z,0.9
2023-03-11T15:37:09.056Z,0.7
2023-03-11T15:39:11.059Z,1.1
2023-03-11T15:41:13.044Z,1.3
2023-03-11T15:43:41.872Z,0.8
2023-03-11T15:45:43.865Z,1.1
2023-03-11T15:49:50.980Z,1.4
2023-03-11T16:00:00.848Z,0.9
2023-03-11T16:02:02.748Z,1.3
2023-03-11T16:06:09.863Z,1.2
2023-03-11T16:08:11.835Z,0.6
2023-03-11T16:10:13.774Z,1.6
2023-03-11T16:12:15.755Z,1.4
2023-03-11T16:14:17.696Z,1.8
2023-03-11T16:18:24.826Z,1.6
2023-03-11T16:20:26.779Z,1.9
2023-03-11T16:22:28.775Z,0.9
2023-03-11T16:24:30.699Z,1.3
2023-03-11T16:26:32.627Z,1.9
2023-03-11T16:28:34.607Z,1.8
2023-03-11T16:30:36.559Z,1.3
2023-03-11T16:32:41.746Z,1.1
2023-03-11T16:34:43.689Z,1.3
2023-03-11T16:36:45.640Z,1.8
2023-03-11T16:54:07.031Z,1.6
2023-03-11T16:58:10.925Z,1.3
2023-03-11T17:04:20.000Z,3
2023-03-11T17:08:23.816Z,1.5
2023-03-11T17:12:27.688Z,1.3
2023-03-11T17:14:32.845Z,2.7
2023-03-11T17:18:36.753Z,1.7
2023-03-11T17:20:38.687Z,2
2023-03-11T17:22:40.590Z,1.8
2023-03-11T17:24:42.532Z,1.7
2023-03-11T17:26:44.462Z,1.6
2023-03-11T17:30:51.531Z,2.6
2023-03-11T17:32:53.491Z,2.8
2023-03-11T17:33:56.000Z,3.1
2023-03-11T17:37:59.841Z,3.3
2023-03-11T17:40:01.790Z,4.3
2023-03-11T17:42:06.926Z,4.1
2023-03-11T17:44:08.862Z,2.7
2023-03-11T17:46:10.798Z,4.9
2023-03-11T17:48:12.696Z,3.3
2023-03-11T17:56:23.544Z,5.8
2023-03-11T17:58:25.473Z,5.8
2023-03-11T18:04:31.207Z,4.8
2023-03-11T18:06:33.127Z,6.6
2023-03-11T18:10:40.176Z,5
2023-03-11T18:12:42.087Z,5.6
2023-03-11T18:14:43.986Z,5.4
2023-03-11T18:18:47.905Z,5.5
2023-03-11T18:22:51.588Z,8.5
2023-03-11T18:29:00.554Z,7.8
2023-03-11T18:30:03.105Z,9.5
2023-03-11T18:36:08.844Z,6.3
2023-03-11T18:38:13.982Z,8.2
2023-03-11T18:40:15.845Z,8.9
2023-03-11T18:42:17.781Z,10.1
2023-03-11T18:44:19.695Z,10
2023-03-11T18:46:21.746Z,9.7
2023-03-11T18:48:23.461Z,11.2
2023-03-11T18:50:25.321Z,10.7
2023-03-11T18:52:30.484Z,10.4
2023-03-11T18:54:32.394Z,10.9
2023-03-11T18:56:34.281Z,9.7
2023-03-11T18:58:36.185Z,7.9
2023-03-11T19:00:34.688Z,9.5
2023-03-11T19:06:41.083Z,12.4
2023-03-11T19:12:46.688Z,9.5
2023-03-11T19:14:48.577Z,11.4
2023-03-11T19:16:50.591Z,9.9
2023-03-11T19:18:52.340Z,8.2
2023-03-11T19:20:57.466Z,8.9
2023-03-11T19:22:59.340Z,8
2023-03-11T19:25:01.218Z,7.9
2023-03-11T19:27:30.083Z,9.9
2023-03-11T19:29:31.948Z,10.5
2023-03-11T19:31:33.848Z,10.5
2023-03-11T19:33:38.955Z,8.6
2023-03-11T19:35:40.898Z,9
2023-03-11T19:37:42.693Z,8.5
2023-03-11T19:39:44.610Z,8.4
2023-03-11T19:41:46.484Z,8.2
2023-03-11T19:43:48.341Z,7
2023-03-11T19:45:50.257Z,8.3
2023-03-11T19:47:55.299Z,11.8
2023-03-11T19:54:00.962Z,16.2
2023-03-11T19:56:02.784Z,16.2
2023-03-11T20:02:11.737Z,13.3
2023-03-11T20:18:29.953Z,11.5
2023-03-11T20:20:31.852Z,10.2
2023-03-11T20:21:34.336Z,10.2
2023-03-11T20:23:36.219Z,9.3
2023-03-11T20:25:38.087Z,10.4
2023-03-11T20:27:39.916Z,9.7
2023-03-11T20:29:45.109Z,10.4
2023-03-11T20:33:48.774Z,10.3
2023-03-11T20:35:50.662Z,8.2
2023-03-11T20:37:52.527Z,11.1
2023-03-11T20:39:54.293Z,11.7
2023-03-11T20:41:56.186Z,9.4
2023-03-11T20:44:01.232Z,11.4
2023-03-11T20:46:03.108Z,12
2023-03-11T20:52:08.703Z,10
2023-03-11T20:54:10.560Z,11.6
2023-03-11T20:56:12.411Z,9.3
2023-03-11T20:58:17.489Z,10.3
2023-03-11T21:02:21.113Z,9.1
2023-03-11T21:04:23.021Z,8.3
2023-03-11T21:17:41.349Z,8
2023-03-11T21:19:43.141Z,7.9
2023-03-11T22:08:40.297Z,6.6
2023-03-11T22:12:44.130Z,7.4
2023-03-11T22:15:48.346Z,8.3
2023-03-11T22:17:50.235Z,9.7
2023-03-11T22:19:52.150Z,9.3
2023-03-11T22:26:00.708Z,7.5
2023-03-11T22:28:02.582Z,6.7
2023-03-11T22:34:08.097Z,8
2023-03-11T22:36:13.286Z,7.8
2023-03-11T22:38:15.044Z,6.6
2023-03-11T22:40:16.900Z,7.6
2023-03-11T22:42:18.738Z,8.3
2023-03-11T22:44:20.615Z,7.7
2023-03-11T22:46:22.540Z,9.4
2023-03-11T22:48:24.323Z,8.7
2023-03-11T22:50:29.384Z,8.6
2023-03-11T22:52:31.250Z,8.7
2023-03-11T22:54:33.185Z,10
2023-03-11T22:56:34.937Z,10.3
2023-03-11T22:58:36.797Z,11.1
2023-03-11T23:00:38.647Z,9.2
2023-03-11T23:02:40.504Z,9.3
2023-03-11T23:04:45.600Z,9.5
2023-03-11T23:06:47.420Z,10
2023-03-11T23:08:49.259Z,8.4
2023-03-11T23:11:18.130Z,9.2
2023-03-11T23:19:28.737Z,11
2023-03-11T23:25:34.324Z,11.4
2023-03-11T23:37:48.653Z,12.7
2023-03-11T23:39:50.511Z,14.3
2023-03-11T23:41:52.358Z,11.2
2023-03-11T23:43:54.219Z,11.2
2023-03-11T23:45:59.368Z,12.7
2023-03-11T23:50:03.016Z,6.9
2023-03-11T23:52:04.902Z,8.1
2023-03-11T23:56:08.564Z,8.2
2023-03-11T23:58:10.460Z,8.3
